createdAt,value
2023-05-03T00:00:29.599Z,7.78
2023-05-03T00:02:57.556Z,7.63
2023-05-03T00:05:26.379Z,8.50
2023-05-03T00:07:53.048Z,9.45
2023-05-03T00:10:19.874Z,8.30
2023-05-03T00:12:46.489Z,7.97
2023-05-03T00:15:13.377Z,8.60
2023-05-03T00:17:40.203Z,8.13
2023-05-03T00:20:08.217Z,8.55
2023-05-03T00:22:35.355Z,7.47
2023-05-03T00:25:02.601Z,7.80
2023-05-03T00:27:29.263Z,8.15
2023-05-03T00:29:55.953Z,7.55
2023-05-03T00:32:23.039Z,7.07
2023-05-03T00:34:57.326Z,7.75
2023-05-03T00:37:25.283Z,7.18
2023-05-03T00:39:52.655Z,6.88
2023-05-03T00:42:19.828Z,7.85
2023-05-03T00:44:46.561Z,7.10
2023-05-03T00:47:13.697Z,6.70
2023-05-03T00:49:41.285Z,6.05
2023-05-03T00:52:09.446Z,7.20
2023-05-03T00:54:36.907Z,6.28
2023-05-03T00:57:04.855Z,6.40
2023-05-03T00:59:34.488Z,7.85
2023-05-03T01:02:02.024Z,6.93
2023-05-03T01:04:29.556Z,7.90
2023-05-03T01:07:13.400Z,6.32
2023-05-03T01:10:28.506Z,7.43
2023-05-03T01:13:07.323Z,7.13
2023-05-03T01:15:42.556Z,8.30
2023-05-03T01:18:15.644Z,6.30
2023-05-03T01:20:48.379Z,6.57
2023-05-03T01:23:28.463Z,6.75
2023-05-03T01:25:55.198Z,6.05
2023-05-03T01:28:21.863Z,8.63
2023-05-03T01:30:51.328Z,7.13
2023-05-03T01:33:53.655Z,8.25
2023-05-03T01:36:26.924Z,8.27
2023-05-03T01:38:54.434Z,6.78
2023-05-03T01:41:24.613Z,8.13
2023-05-03T01:43:53.795Z,9.43
2023-05-03T01:46:20.697Z,8.23
2023-05-03T01:48:48.091Z,8.90
2023-05-03T01:51:14.753Z,8.02
2023-05-03T01:53:42.129Z,8.20
2023-05-03T01:56:09.037Z,8.38
2023-05-03T01:58:35.789Z,7.80
2023-05-03T02:01:05.667Z,6.80
2023-05-03T02:03:32.396Z,8.20
2023-05-03T02:05:59.180Z,8.15
2023-05-03T02:08:25.910Z,8.60
2023-05-03T02:10:52.560Z,9.07
2023-05-03T02:13:19.207Z,8.23
2023-05-03T02:15:45.895Z,8.60
2023-05-03T02:18:12.577Z,8.23
2023-05-03T02:20:39.542Z,7.85
2023-05-03T02:23:06.277Z,7.80
2023-05-03T02:25:32.961Z,9.38
2023-05-03T02:27:59.622Z,8.32
2023-05-03T02:30:26.393Z,8.73
2023-05-03T02:32:53.131Z,7.32
2023-05-03T02:35:19.847Z,8.85
2023-05-03T02:37:46.515Z,8.20
2023-05-03T02:40:13.204Z,7.60
2023-05-03T02:42:40.858Z,7.75
2023-05-03T02:45:07.881Z,8.23
2023-05-03T02:47:34.686Z,8.40
2023-05-03T02:50:01.805Z,8.82
2023-05-03T02:52:29.204Z,7.78
2023-05-03T02:54:56.024Z,8.45
2023-05-03T02:57:22.699Z,9.00
2023-05-03T02:59:49.428Z,8.52
2023-05-03T03:02:16.175Z,8.20
2023-05-03T03:04:42.890Z,9.93
2023-05-03T03:07:09.589Z,8.43
2023-05-03T03:09:36.309Z,8.95
2023-05-03T03:12:03.984Z,9.60
2023-05-03T03:14:30.753Z,9.23
2023-05-03T03:16:58.340Z,8.73
2023-05-03T03:19:25.036Z,8.88
2023-05-03T03:21:51.876Z,8.55
2023-05-03T03:24:18.536Z,7.88
2023-05-03T03:26:45.255Z,7.95
2023-05-03T03:29:11.897Z,8.20
2023-05-03T03:31:38.656Z,8.45
2023-05-03T03:34:05.562Z,8.35
2023-05-03T03:36:32.222Z,7.80
2023-05-03T03:38:58.943Z,8.82
2023-05-03T03:41:25.693Z,8.13
2023-05-03T03:43:52.472Z,8.38
2023-05-03T03:46:19.206Z,8.80
2023-05-03T03:48:45.956Z,8.75
2023-05-03T03:51:12.636Z,8.57
2023-05-03T03:53:39.408Z,9.40
2023-05-03T03:56:06.351Z,7.60
2023-05-03T03:58:32.986Z,7.88
2023-05-03T04:01:00.845Z,7.88
2023-05-03T04:03:29.733Z,6.97
2023-05-03T04:05:56.472Z,7.78
2023-05-03T04:08:23.258Z,7.38
2023-05-03T04:10:50.639Z,6.97
2023-05-03T04:13:17.398Z,6.45
2023-05-03T04:15:44.369Z,6.90
2023-05-03T04:18:11.399Z,7.35
2023-05-03T04:20:38.841Z,6.88
2023-05-03T04:23:05.578Z,6.20
2023-05-03T04:25:32.383Z,6.82
2023-05-03T04:27:59.265Z,6.53
2023-05-03T04:30:25.998Z,6.80
2023-05-03T04:32:54.393Z,6.82
2023-05-03T04:35:21.336Z,6.63
2023-05-03T04:37:48.094Z,7.13
2023-05-03T04:40:15.020Z,7.18
2023-05-03T04:42:42.519Z,8.23
2023-05-03T04:45:09.947Z,7.53
2023-05-03T04:47:37.323Z,7.05
2023-05-03T04:50:04.524Z,7.05
2023-05-03T04:52:31.880Z,6.70
2023-05-03T04:54:58.609Z,7.60
2023-05-03T04:57:25.715Z,7.47
2023-05-03T04:59:54.206Z,7.70
2023-05-03T05:02:21.730Z,7.55
2023-05-03T05:04:48.635Z,7.40
2023-05-03T05:07:15.680Z,8.23
2023-05-03T05:09:42.354Z,9.10
2023-05-03T05:12:09.239Z,7.47
2023-05-03T05:14:38.949Z,7.63
2023-05-03T05:17:05.705Z,7.72
2023-05-03T05:19:32.682Z,7.78
2023-05-03T05:21:59.422Z,8.32
2023-05-03T05:24:26.100Z,7.95
2023-05-03T05:26:52.872Z,8.05
2023-05-03T05:29:19.614Z,7.55
2023-05-03T05:31:46.579Z,8.02
2023-05-03T05:34:13.279Z,8.40
2023-05-03T05:36:40.135Z,8.63
2023-05-03T05:39:07.058Z,8.32
2023-05-03T05:41:33.909Z,9.10
2023-05-03T05:44:00.808Z,9.77
2023-05-03T05:46:27.628Z,9.07
2023-05-03T05:48:54.286Z,9.63
2023-05-03T05:51:21.128Z,10.15
2023-05-03T05:53:47.848Z,10.20
2023-05-03T05:56:14.593Z,9.85
2023-05-03T05:58:41.361Z,9.93
2023-05-03T06:01:08.573Z,10.40
2023-05-03T06:03:35.633Z,10.57
2023-05-03T06:06:02.534Z,9.95
2023-05-03T06:08:29.314Z,9.95
2023-05-03T06:10:55.980Z,10.27
2023-05-03T06:13:23.034Z,10.30
2023-05-03T06:15:49.685Z,10.68
2023-05-03T06:18:16.709Z,9.82
2023-05-03T06:20:43.435Z,9.85
2023-05-03T06:23:10.497Z,11.00
2023-05-03T06:25:37.594Z,9.45
2023-05-03T06:28:04.741Z,10.68
2023-05-03T06:30:31.718Z,11.65
2023-05-03T06:32:58.473Z,10.48
2023-05-03T06:35:25.496Z,9.88
2023-05-03T06:37:52.551Z,10.18
2023-05-03T06:40:19.317Z,10.50
2023-05-03T06:42:46.360Z,9.52
2023-05-03T06:45:13.136Z,10.13
2023-05-03T06:47:42.806Z,9.73
2023-05-03T06:50:10.610Z,8.82
2023-05-03T06:52:37.542Z,9.13
2023-05-03T06:55:05.128Z,9.10
2023-05-03T06:57:32.084Z,8.27
2023-05-03T06:59:59.278Z,8.20
2023-05-03T07:02:26.909Z,8.75
2023-05-03T07:04:53.955Z,7.75
2023-05-03T07:07:21.154Z,8.32
2023-05-03T07:09:48.092Z,7.60
2023-05-03T07:12:14.921Z,8.95
2023-05-03T07:14:41.586Z,6.47
2023-05-03T07:17:09.368Z,6.88
2023-05-03T07:19:37.322Z,6.70
2023-05-03T07:22:04.468Z,7.03
2023-05-03T07:24:31.206Z,6.78
2023-05-03T07:26:58.668Z,5.85
2023-05-03T07:29:27.738Z,5.57
2023-05-03T07:31:54.901Z,4.88
2023-05-03T07:34:21.890Z,5.68
2023-05-03T07:36:48.662Z,5.90
2023-05-03T07:39:15.463Z,5.00
2023-05-03T07:41:42.069Z,5.85
2023-05-03T07:44:09.398Z,5.22
2023-05-03T07:46:36.197Z,5.38
2023-05-03T07:49:04.915Z,5.00
2023-05-03T07:51:39.510Z,5.80
2023-05-03T07:54:06.884Z,5.50
2023-05-03T07:56:33.755Z,5.53
2023-05-03T08:01:30.609Z,5.63
2023-05-03T08:03:58.661Z,5.43
2023-05-03T08:06:26.217Z,7.07
2023-05-03T08:08:53.067Z,5.55
2023-05-03T08:11:19.806Z,8.48
2023-05-03T08:13:46.485Z,6.63
2023-05-03T08:16:13.815Z,7.28
2023-05-03T08:18:40.696Z,7.70
2023-05-03T08:21:09.019Z,7.35
2023-05-03T08:23:36.831Z,7.68
2023-05-03T08:26:04.342Z,8.13
2023-05-03T08:28:31.294Z,7.63
2023-05-03T08:30:58.388Z,7.55
2023-05-03T08:33:25.098Z,7.85
2023-05-03T08:35:52.629Z,8.27
2023-05-03T08:38:19.313Z,8.35
2023-05-03T08:40:51.022Z,8.35
2023-05-03T08:43:21.717Z,10.85
2023-05-03T08:45:48.540Z,7.50
2023-05-03T08:48:15.620Z,9.38
2023-05-03T08:50:44.519Z,7.93
2023-05-03T08:53:12.072Z,7.90
2023-05-03T08:55:38.969Z,8.35
2023-05-03T08:58:10.815Z,8.75
2023-05-03T09:00:38.530Z,8.02
2023-05-03T09:03:05.445Z,7.53
2023-05-03T09:05:34.447Z,7.78
2023-05-03T09:08:09.928Z,7.65
2023-05-03T09:10:41.687Z,7.25
2023-05-03T09:13:10.464Z,7.72
2023-05-03T09:15:37.486Z,7.25
2023-05-03T09:18:09.200Z,9.40
2023-05-03T09:20:37.140Z,7.40
2023-05-03T09:23:04.439Z,7.38
2023-05-03T09:25:51.563Z,8.32
2023-05-03T09:28:20.288Z,8.20
2023-05-03T09:30:48.415Z,7.55
2023-05-03T09:33:22.318Z,7.90
2023-05-03T09:35:59.370Z,8.77
2023-05-03T09:38:34.432Z,7.03
2023-05-03T09:41:06.500Z,7.93
2023-05-03T09:46:13.246Z,6.30
2023-05-03T09:48:41.136Z,8.40
2023-05-03T09:51:09.109Z,7.07
2023-05-03T09:53:37.152Z,7.30
2023-05-03T09:56:06.306Z,8.20
2023-05-03T09:58:35.230Z,7.53
2023-05-03T10:01:02.804Z,6.40
2023-05-03T10:03:39.428Z,5.72
2023-05-03T10:06:11.722Z,7.38
2023-05-03T10:08:45.533Z,7.40
2023-05-03T10:11:16.602Z,6.70
2023-05-03T10:13:43.471Z,6.82
2023-05-03T10:16:15.308Z,6.40
2023-05-03T10:18:51.106Z,6.93
2023-05-03T10:22:03.293Z,7.65
2023-05-03T10:24:30.090Z,6.65
2023-05-03T10:26:57.775Z,6.80
2023-05-03T10:29:34.498Z,7.10
2023-05-03T10:32:02.462Z,6.47
2023-05-03T10:34:33.961Z,7.20
2023-05-03T10:37:10.341Z,8.35
2023-05-03T10:39:37.835Z,7.03
2023-05-03T10:42:08.575Z,8.20
2023-05-03T10:44:39.867Z,6.50
2023-05-03T10:47:13.018Z,6.50
2023-05-03T10:49:39.673Z,7.40
2023-05-03T10:52:51.492Z,5.75
2023-05-03T10:55:21.034Z,6.88
2023-05-03T10:57:49.238Z,5.45
2023-05-03T11:00:35.566Z,6.40
2023-05-03T11:03:02.334Z,6.63
2023-05-03T11:05:31.244Z,8.05
2023-05-03T11:08:18.823Z,5.82
2023-05-03T11:10:46.603Z,5.68
2023-05-03T11:13:14.422Z,7.30
2023-05-03T11:15:42.182Z,5.65
2023-05-03T11:18:11.514Z,5.80
2023-05-03T11:20:38.641Z,5.38
2023-05-03T11:23:07.479Z,6.32
2023-05-03T11:25:34.472Z,5.57
2023-05-03T11:28:02.188Z,5.80
2023-05-03T11:30:29.745Z,6.93
2023-05-03T11:32:56.759Z,6.32
2023-05-03T11:35:25.919Z,5.47
2023-05-03T11:37:54.171Z,6.13
2023-05-03T11:40:21.497Z,6.15
2023-05-03T11:43:14.454Z,6.05
2023-05-03T11:45:44.355Z,6.60
2023-05-03T11:48:14.963Z,6.65
2023-05-03T11:50:55.272Z,6.30
2023-05-03T11:53:26.086Z,4.65
2023-05-03T11:55:54.477Z,5.50
2023-05-03T11:58:26.620Z,5.75
2023-05-03T12:00:57.233Z,5.45
2023-05-03T12:03:31.635Z,7.10
2023-05-03T12:06:01.597Z,4.78
2023-05-03T12:08:36.174Z,5.07
2023-05-03T12:11:07.777Z,5.32
2023-05-03T12:13:39.591Z,4.75
2023-05-03T12:16:13.484Z,5.07
2023-05-03T12:18:53.893Z,5.03
2023-05-03T12:23:56.312Z,5.53
2023-05-03T12:26:25.555Z,5.10
2023-05-03T12:28:56.010Z,4.72
2023-05-03T12:31:23.886Z,5.72
2023-05-03T12:34:13.505Z,4.35
2023-05-03T12:36:38.642Z,4.03
2023-05-03T12:39:10.207Z,4.07
2023-05-03T12:44:10.318Z,6.40
2023-05-03T12:46:38.581Z,4.90
2023-05-03T12:49:08.084Z,4.20
2023-05-03T12:51:35.805Z,4.45
2023-05-03T12:54:03.835Z,3.90
2023-05-03T12:56:33.105Z,3.55
2023-05-03T13:04:36.546Z,4.88
2023-05-03T13:06:55.588Z,6.07
2023-05-03T13:09:37.085Z,6.38
2023-05-03T13:12:05.385Z,5.57
2023-05-03T13:14:32.217Z,4.93
2023-05-03T13:17:00.221Z,5.50
2023-05-03T13:19:30.185Z,4.70
2023-05-03T13:21:56.928Z,4.15
2023-05-03T13:24:23.643Z,4.38
2023-05-03T13:26:52.259Z,3.78
2023-05-03T13:29:19.017Z,2.83
2023-05-03T13:31:45.732Z,3.33
2023-05-03T13:34:12.573Z,2.78
2023-05-03T13:36:39.226Z,3.88
2023-05-03T13:39:09.682Z,3.33
2023-05-03T13:41:40.771Z,3.45
2023-05-03T13:44:09.552Z,2.83
2023-05-03T13:46:40.333Z,2.92
2023-05-03T13:49:08.386Z,2.42
2023-05-03T13:51:35.654Z,3.20
2023-05-03T13:54:04.502Z,2.50
2023-05-03T13:56:31.911Z,3.17
2023-05-03T13:59:01.819Z,3.30
2023-05-03T14:01:29.161Z,2.75
2023-05-03T14:03:57.224Z,2.53
2023-05-03T14:06:24.250Z,2.78
2023-05-03T14:08:54.319Z,2.75
2023-05-03T14:11:22.649Z,2.33
2023-05-03T14:16:35.879Z,3.65
2023-05-03T14:19:07.647Z,4.00
2023-05-03T14:21:34.547Z,5.75
2023-05-03T14:24:01.743Z,4.32
2023-05-03T14:26:29.666Z,2.45
2023-05-03T14:28:56.458Z,2.88
2023-05-03T14:31:23.314Z,2.22
2023-05-03T14:33:50.033Z,2.75
2023-05-03T14:36:16.811Z,2.92
2023-05-03T14:38:43.592Z,2.67
2023-05-03T14:41:10.281Z,2.40
2023-05-03T14:43:37.880Z,2.75
2023-05-03T14:46:04.983Z,2.70
2023-05-03T14:48:31.698Z,2.35
2023-05-03T14:50:58.319Z,3.53
2023-05-03T14:53:25.068Z,6.05
2023-05-03T14:55:53.749Z,3.63
2023-05-03T14:58:20.568Z,2.58
2023-05-03T15:00:47.437Z,2.03
2023-05-03T15:03:14.535Z,2.20
2023-05-03T15:05:49.781Z,2.28
2023-05-03T15:08:19.439Z,2.95
2023-05-03T15:10:46.705Z,3.20
2023-05-03T15:13:14.537Z,4.22
2023-05-03T15:15:45.876Z,2.85
2023-05-03T15:18:14.662Z,3.08
2023-05-03T15:20:41.533Z,3.25
2023-05-03T15:23:08.243Z,2.60
2023-05-03T15:25:35.710Z,3.13
2023-05-03T15:28:04.513Z,3.05
2023-05-03T15:30:32.840Z,3.17
2023-05-03T15:33:01.106Z,2.38
2023-05-03T15:35:28.090Z,2.58
2023-05-03T15:37:54.812Z,2.60
2023-05-03T15:40:23.736Z,3.03
2023-05-03T15:42:52.157Z,2.42
2023-05-03T15:45:19.253Z,3.53
2023-05-03T15:47:46.242Z,3.50
2023-05-03T15:50:13.134Z,2.50
2023-05-03T15:52:39.997Z,2.38
2023-05-03T15:55:08.311Z,2.50
2023-05-03T15:57:35.748Z,3.22
2023-05-03T16:00:06.469Z,2.95
2023-05-03T16:02:33.424Z,2.95
2023-05-03T16:05:00.334Z,3.97
2023-05-03T16:07:27.246Z,4.88
2023-05-03T16:09:53.969Z,2.75
2023-05-03T16:12:21.380Z,3.95
2023-05-03T16:14:48.191Z,3.92
2023-05-03T16:17:14.992Z,3.92
2023-05-03T16:19:41.673Z,2.85
2023-05-03T16:22:08.749Z,3.38
2023-05-03T16:24:35.498Z,2.80
2023-05-03T16:27:02.793Z,3.45
2023-05-03T16:29:29.681Z,2.95
2023-05-03T16:31:56.620Z,3.33
2023-05-03T16:34:23.372Z,3.15
2023-05-03T16:36:50.046Z,3.33
2023-05-03T16:39:16.814Z,3.22
2023-05-03T16:41:43.658Z,3.50
2023-05-03T16:44:10.414Z,3.38
2023-05-03T16:46:39.346Z,4.72
2023-05-03T16:49:06.532Z,3.67
2023-05-03T16:51:33.757Z,3.67
2023-05-03T16:54:03.792Z,3.22
2023-05-03T16:56:31.266Z,3.90
2023-05-03T16:58:59.348Z,3.58
2023-05-03T17:01:26.411Z,3.33
2023-05-03T17:03:53.631Z,3.90
2023-05-03T17:06:20.431Z,4.10
2023-05-03T17:08:47.236Z,3.33
2023-05-03T17:11:14.675Z,4.25
2023-05-03T17:13:42.049Z,4.00
2023-05-03T17:16:15.251Z,3.13
2023-05-03T17:18:42.687Z,3.47
2023-05-03T17:21:10.248Z,3.47
2023-05-03T17:23:39.347Z,4.30
2023-05-03T17:26:11.115Z,3.28
2023-05-03T17:28:38.047Z,3.70
2023-05-03T17:31:06.504Z,4.47
2023-05-03T17:33:34.372Z,4.00
2023-05-03T17:36:05.036Z,4.85
2023-05-03T17:38:33.262Z,5.18
2023-05-03T17:41:08.175Z,5.57
2023-05-03T17:43:35.872Z,5.22
2023-05-03T17:46:11.305Z,4.93
2023-05-03T17:48:40.504Z,5.65
2023-05-03T17:51:07.722Z,4.20
2023-05-03T17:53:34.802Z,3.60
2023-05-03T17:56:01.481Z,4.25
2023-05-03T17:58:28.330Z,5.00
2023-05-03T18:00:57.033Z,7.03
2023-05-03T18:03:24.117Z,5.88
2023-05-03T18:05:50.868Z,6.43
2023-05-03T18:08:17.532Z,4.20
2023-05-03T18:10:45.021Z,4.00
2023-05-03T18:13:12.917Z,5.05
2023-05-03T18:15:41.680Z,4.32
2023-05-03T18:18:09.026Z,5.38
2023-05-03T18:20:35.860Z,5.00
2023-05-03T18:23:04.151Z,6.40
2023-05-03T18:25:31.889Z,5.53
2023-05-03T18:28:00.550Z,6.28
2023-05-03T18:30:28.380Z,4.65
2023-05-03T18:32:56.034Z,5.55
2023-05-03T18:35:22.977Z,3.80
2023-05-03T18:37:51.703Z,4.40
2023-05-03T18:40:18.488Z,5.15
2023-05-03T18:42:45.148Z,5.95
2023-05-03T18:45:12.180Z,5.55
2023-05-03T18:47:39.001Z,4.03
2023-05-03T18:50:06.441Z,5.78
2023-05-03T18:52:33.269Z,5.32
2023-05-03T18:54:59.988Z,6.20
2023-05-03T18:57:27.365Z,5.07
2023-05-03T19:00:01.022Z,5.07
2023-05-03T19:02:30.762Z,6.20
2023-05-03T19:04:58.233Z,6.63
2023-05-03T19:07:25.068Z,5.07
2023-05-03T19:09:55.881Z,5.13
2023-05-03T19:12:22.759Z,6.45
2023-05-03T19:14:49.508Z,6.90
2023-05-03T19:17:16.074Z,6.15
2023-05-03T19:19:42.709Z,9.27
2023-05-03T19:22:09.352Z,7.65
2023-05-03T19:24:36.235Z,6.93
2023-05-03T19:27:04.574Z,7.40
2023-05-03T19:29:31.445Z,6.57
2023-05-03T19:31:58.123Z,6.85
2023-05-03T19:34:24.839Z,7.45
2023-05-03T19:36:51.655Z,6.20
2023-05-03T19:39:18.347Z,5.50
2023-05-03T19:41:45.014Z,5.50
2023-05-03T19:44:12.204Z,6.13
2023-05-03T19:46:39.124Z,6.03
2023-05-03T19:49:05.928Z,4.70
2023-05-03T19:51:33.398Z,5.65
2023-05-03T19:54:03.327Z,6.20
2023-05-03T19:56:30.115Z,6.10
2023-05-03T19:58:57.190Z,5.70
2023-05-03T20:01:24.174Z,5.85
2023-05-03T20:03:53.436Z,5.68
2023-05-03T20:06:20.551Z,6.93
2023-05-03T20:08:47.282Z,11.07
2023-05-03T20:11:14.332Z,7.88
2023-05-03T20:13:41.047Z,6.68
2023-05-03T20:16:08.431Z,6.10
2023-05-03T20:18:35.350Z,6.18
2023-05-03T20:21:04.059Z,5.43
2023-05-03T20:23:30.806Z,5.90
2023-05-03T20:25:58.438Z,5.68
2023-05-03T20:28:25.785Z,7.43
2023-05-03T20:30:52.958Z,6.60
2023-05-03T20:33:19.714Z,6.90
2023-05-03T20:35:46.484Z,6.78
2023-05-03T20:38:13.414Z,7.78
2023-05-03T20:40:40.616Z,5.82
2023-05-03T20:43:07.434Z,6.25
2023-05-03T20:45:34.123Z,8.68
2023-05-03T20:48:00.833Z,8.18
2023-05-03T20:50:27.882Z,8.00
2023-05-03T20:52:55.373Z,8.27
2023-05-03T20:55:24.298Z,5.53
2023-05-03T20:57:51.019Z,4.97
2023-05-03T21:00:22.252Z,5.50
2023-05-03T21:02:53.917Z,8.77
2023-05-03T21:05:21.876Z,5.03
2023-05-03T21:07:48.846Z,4.47
2023-05-03T21:10:15.487Z,3.70
2023-05-03T21:12:42.192Z,3.78
2023-05-03T21:15:09.666Z,3.58
2023-05-03T21:17:36.570Z,4.50
2023-05-03T21:20:04.090Z,5.07
2023-05-03T21:22:31.239Z,3.40
2023-05-03T21:24:59.236Z,3.85
2023-05-03T21:27:25.936Z,3.03
2023-05-03T21:29:53.205Z,3.20
2023-05-03T21:32:19.934Z,3.63
2023-05-03T21:34:46.673Z,2.95
2023-05-03T21:37:13.336Z,3.78
2023-05-03T21:39:40.191Z,4.68
2023-05-03T21:42:07.042Z,3.67
2023-05-03T21:44:33.700Z,3.60
2023-05-03T21:47:00.836Z,3.40
2023-05-03T21:49:27.658Z,3.90
2023-05-03T21:51:54.409Z,2.90
2023-05-03T21:54:21.084Z,3.35
2023-05-03T21:56:48.146Z,2.83
2023-05-03T21:59:15.326Z,2.60
2023-05-03T22:01:43.067Z,3.70
2023-05-03T22:04:09.878Z,3.25
2023-05-03T22:06:36.949Z,3.22
2023-05-03T22:09:03.764Z,4.85
2023-05-03T22:11:30.399Z,3.05
2023-05-03T22:14:07.303Z,3.17
2023-05-03T22:16:37.572Z,3.35
2023-05-03T22:19:04.513Z,3.38
2023-05-03T22:21:31.866Z,2.95
2023-05-03T22:23:58.550Z,3.20
2023-05-03T22:26:25.415Z,3.05
2023-05-03T22:28:52.082Z,4.03
2023-05-03T22:31:18.777Z,3.15
2023-05-03T22:33:47.169Z,3.67
2023-05-03T22:36:14.666Z,3.13
2023-05-03T22:38:43.093Z,3.38
2023-05-03T22:41:11.115Z,3.63
2023-05-03T22:43:37.996Z,3.38
2023-05-03T22:46:05.200Z,3.10
2023-05-03T22:48:34.253Z,4.38
2023-05-03T22:51:01.585Z,3.28
2023-05-03T22:53:28.262Z,4.30
2023-05-03T22:55:59.079Z,3.47
2023-05-03T22:58:25.830Z,3.33
2023-05-03T23:00:53.160Z,3.35
2023-05-03T23:03:22.669Z,4.18
2023-05-03T23:05:52.178Z,3.30
2023-05-03T23:08:19.831Z,3.50
2023-05-03T23:10:46.639Z,3.95
2023-05-03T23:13:13.478Z,3.80
2023-05-03T23:15:40.336Z,3.90
2023-05-03T23:18:07.411Z,3.72
2023-05-03T23:20:34.471Z,4.05
2023-05-03T23:23:01.193Z,3.63
2023-05-03T23:25:27.933Z,3.40
2023-05-03T23:27:54.651Z,3.55
2023-05-03T23:30:21.742Z,3.50
2023-05-03T23:32:50.643Z,4.15
2023-05-03T23:35:18.084Z,4.10
2023-05-03T23:37:44.747Z,3.53
2023-05-03T23:40:13.022Z,3.58
2023-05-03T23:42:41.280Z,3.72
2023-05-03T23:45:09.642Z,3.53
2023-05-03T23:47:37.052Z,3.88
2023-05-03T23:50:04.986Z,4.07
2023-05-03T23:52:31.947Z,3.85
2023-05-03T23:54:58.659Z,4.28
2023-05-03T23:57:25.920Z,4.30
2023-05-03T23:59:52.551Z,3.80
